createdAt,value
2018-07-25T00:01:50.514Z,18.40
2018-07-25T00:04:18.053Z,18.30
2018-07-25T00:06:45.618Z,18.30
2018-07-25T00:09:13.189Z,18.30
2018-07-25T00:11:40.745Z,18.30
2018-07-25T00:14:08.339Z,18.30
2018-07-25T00:16:36.674Z,18.20
2018-07-25T00:19:04.465Z,18.20
2018-07-25T00:21:32.208Z,18.20
2018-07-25T00:23:59.742Z,18.20
2018-07-25T00:26:27.623Z,18.20
2018-07-25T00:28:55.150Z,18.10
2018-07-25T00:31:22.842Z,18.10
2018-07-25T00:33:50.418Z,18.10
2018-07-25T00:36:18.058Z,18.10
2018-07-25T00:38:45.617Z,18.00
2018-07-25T00:41:13.226Z,18.00
2018-07-25T00:43:40.790Z,17.90
2018-07-25T00:46:08.446Z,17.90
2018-07-25T00:48:36.006Z,17.90
2018-07-25T00:51:03.550Z,17.80
2018-07-25T00:53:31.116Z,17.90
2018-07-25T00:55:58.658Z,17.90
2018-07-25T00:58:26.240Z,17.90
2018-07-25T01:00:53.832Z,17.80
2018-07-25T01:03:21.384Z,17.70
2018-07-25T01:05:48.972Z,17.70
2018-07-25T01:08:16.568Z,17.70
2018-07-25T01:10:44.238Z,17.60
2018-07-25T01:13:12.340Z,17.60
2018-07-25T01:15:40.030Z,17.70
2018-07-25T01:18:07.771Z,17.70
2018-07-25T01:20:35.296Z,17.60
2018-07-25T01:23:02.856Z,17.60
2018-07-25T01:25:30.530Z,17.50
2018-07-25T01:27:58.112Z,17.60
2018-07-25T01:30:25.686Z,17.50
2018-07-25T01:32:53.241Z,17.50
2018-07-25T01:37:48.234Z,17.50
2018-07-25T01:40:15.791Z,17.40
2018-07-25T01:42:43.465Z,17.40
2018-07-25T01:45:10.999Z,17.40
2018-07-25T01:47:38.609Z,17.40
2018-07-25T01:50:06.649Z,17.40
2018-07-25T01:52:34.259Z,17.40
2018-07-25T01:55:02.014Z,17.40
2018-07-25T01:57:29.587Z,17.40
2018-07-25T01:59:57.189Z,17.40
2018-07-25T02:02:24.769Z,17.40
2018-07-25T02:04:52.397Z,17.40
2018-07-25T02:07:19.985Z,17.30
2018-07-25T02:09:47.539Z,17.30
2018-07-25T02:12:15.089Z,17.30
2018-07-25T02:14:42.707Z,17.30
2018-07-25T02:17:10.228Z,17.20
2018-07-25T02:19:37.797Z,17.20
2018-07-25T02:22:05.409Z,17.20
2018-07-25T02:24:32.957Z,17.20
2018-07-25T02:27:00.483Z,17.20
2018-07-25T02:29:28.076Z,17.20
2018-07-25T02:31:55.627Z,17.20
2018-07-25T02:34:23.209Z,17.20
2018-07-25T02:36:51.638Z,17.20
2018-07-25T02:39:19.235Z,17.10
2018-07-25T02:41:46.859Z,17.10
2018-07-25T02:44:14.519Z,17.10
2018-07-25T02:46:42.124Z,17.10
2018-07-25T02:49:09.899Z,17.00
2018-07-25T02:51:37.498Z,16.90
2018-07-25T02:54:05.525Z,16.90
2018-07-25T02:56:33.314Z,16.90
2018-07-25T02:59:01.377Z,16.90
2018-07-25T03:01:28.966Z,16.90
2018-07-25T03:03:56.506Z,16.90
2018-07-25T03:06:24.114Z,16.80
2018-07-25T03:08:51.636Z,16.80
2018-07-25T03:11:19.283Z,16.80
2018-07-25T03:13:46.891Z,16.90
2018-07-25T03:16:14.444Z,16.80
2018-07-25T03:18:42.055Z,16.80
2018-07-25T03:21:09.630Z,16.90
2018-07-25T03:23:37.161Z,16.80
2018-07-25T03:26:04.710Z,16.80
2018-07-25T03:28:32.305Z,16.80
2018-07-25T03:31:00.481Z,16.80
2018-07-25T03:33:28.108Z,16.80
2018-07-25T03:35:56.768Z,16.80
2018-07-25T03:40:52.131Z,16.80
2018-07-25T03:43:19.731Z,16.80
2018-07-25T03:45:47.269Z,16.80
2018-07-25T03:48:14.843Z,16.70
2018-07-25T03:50:42.394Z,16.70
2018-07-25T03:53:09.986Z,16.60
2018-07-25T03:55:37.689Z,16.60
2018-07-25T03:58:05.327Z,16.60
2018-07-25T04:07:55.553Z,16.60
2018-07-25T04:10:23.085Z,16.60
2018-07-25T04:12:50.724Z,16.60
2018-07-25T04:15:18.328Z,16.70
2018-07-25T04:17:47.575Z,16.70
2018-07-25T04:20:16.210Z,16.80
2018-07-25T04:22:43.848Z,16.90
2018-07-25T04:25:11.486Z,16.90
2018-07-25T04:27:40.872Z,16.90
2018-07-25T04:30:09.714Z,16.90
2018-07-25T04:32:37.624Z,16.90
2018-07-25T04:35:05.380Z,17.00
2018-07-25T04:37:32.986Z,17.00
2018-07-25T04:40:00.631Z,17.10
2018-07-25T04:42:28.242Z,17.10
2018-07-25T04:44:55.768Z,17.20
2018-07-25T04:47:23.344Z,17.20
2018-07-25T04:49:50.908Z,17.30
2018-07-25T04:52:18.470Z,17.30
2018-07-25T04:54:46.196Z,17.40
2018-07-25T04:57:13.810Z,17.40
2018-07-25T04:59:41.796Z,17.50
2018-07-25T05:02:09.682Z,17.60
2018-07-25T05:04:37.294Z,17.60
2018-07-25T05:07:04.968Z,17.60
2018-07-25T05:12:06.686Z,17.70
2018-07-25T05:14:40.862Z,17.70
2018-07-25T05:17:08.460Z,17.80
2018-07-25T05:19:36.046Z,17.90
2018-07-25T05:22:03.722Z,17.90
2018-07-25T05:24:31.324Z,18.00
2018-07-25T05:26:58.886Z,18.10
2018-07-25T05:29:27.964Z,18.40
2018-07-25T05:31:55.601Z,18.60
2018-07-25T05:34:23.314Z,18.80
2018-07-25T05:36:50.888Z,19.00
2018-07-25T05:39:35.212Z,19.20
2018-07-25T05:42:02.874Z,19.30
2018-07-25T05:44:30.474Z,19.40
2018-07-25T05:46:58.118Z,19.40
2018-07-25T05:49:25.769Z,19.40
2018-07-25T05:51:53.361Z,19.50
2018-07-25T05:54:20.986Z,19.60
2018-07-25T05:56:48.607Z,19.60
2018-07-25T05:59:16.138Z,19.70
2018-07-25T06:01:43.736Z,19.70
2018-07-25T06:04:11.322Z,19.80
2018-07-25T06:06:38.872Z,19.80
2018-07-25T06:09:07.722Z,19.90
2018-07-25T06:11:35.422Z,19.90
2018-07-25T06:14:03.048Z,20.00
2018-07-25T06:16:30.691Z,20.00
2018-07-25T06:18:58.276Z,20.20
2018-07-25T06:21:25.826Z,20.20
2018-07-25T06:23:53.385Z,20.30
2018-07-25T06:26:20.926Z,20.30
2018-07-25T06:28:48.468Z,20.40
2018-07-25T06:31:16.095Z,20.40
2018-07-25T06:33:43.630Z,20.50
2018-07-25T06:36:11.182Z,20.60
2018-07-25T06:38:38.728Z,20.60
2018-07-25T06:41:06.294Z,20.70
2018-07-25T06:43:33.891Z,20.80
2018-07-25T06:46:01.395Z,20.90
2018-07-25T06:48:28.955Z,21.00
2018-07-25T06:50:56.507Z,21.00
2018-07-25T06:53:24.105Z,21.10
2018-07-25T06:55:51.642Z,21.20
2018-07-25T06:58:19.183Z,21.30
2018-07-25T07:00:46.740Z,21.40
2018-07-25T07:03:14.259Z,21.50
2018-07-25T07:05:41.835Z,21.60
2018-07-25T07:08:09.404Z,21.60
2018-07-25T07:10:36.977Z,21.80
2018-07-25T07:13:04.702Z,21.90
2018-07-25T07:15:32.332Z,22.00
2018-07-25T07:17:59.868Z,22.10
2018-07-25T07:20:27.457Z,22.20
2018-07-25T07:22:55.033Z,22.30
2018-07-25T07:25:22.603Z,22.30
2018-07-25T07:27:50.160Z,22.40
2018-07-25T07:30:17.713Z,22.40
2018-07-25T07:32:45.289Z,22.50
2018-07-25T07:35:12.973Z,22.60
2018-07-25T07:37:40.524Z,22.60
2018-07-25T07:40:08.098Z,22.70
2018-07-25T07:42:35.692Z,22.90
2018-07-25T07:45:03.467Z,23.00
2018-07-25T07:47:31.060Z,23.10
2018-07-25T07:49:58.688Z,23.20
2018-07-25T07:52:26.244Z,23.30
2018-07-25T07:54:53.823Z,23.50
2018-07-25T07:57:21.375Z,23.60
2018-07-25T07:59:48.974Z,23.80
2018-07-25T08:02:16.598Z,24.00
2018-07-25T08:04:44.160Z,24.20
2018-07-25T08:07:11.749Z,24.40
2018-07-25T08:09:39.301Z,24.50
2018-07-25T08:12:06.930Z,24.70
2018-07-25T08:14:34.506Z,24.70
2018-07-25T08:17:02.115Z,24.80
2018-07-25T08:19:29.689Z,24.90
2018-07-25T08:21:57.253Z,25.00
2018-07-25T08:24:24.799Z,25.10
2018-07-25T08:26:52.417Z,25.20
2018-07-25T08:29:20.098Z,25.20
2018-07-25T08:31:47.713Z,25.30
2018-07-25T08:34:15.311Z,25.30
2018-07-25T08:36:42.873Z,25.40
2018-07-25T08:41:38.786Z,25.50
2018-07-25T08:44:06.545Z,25.60
2018-07-25T08:46:34.123Z,25.80
2018-07-25T08:49:01.680Z,25.80
2018-07-25T08:51:29.293Z,25.80
2018-07-25T08:53:56.893Z,25.90
2018-07-25T08:58:51.966Z,26.00
2018-07-25T09:01:19.587Z,26.10
2018-07-25T09:03:47.152Z,26.20
2018-07-25T09:06:14.725Z,26.30
2018-07-25T09:08:42.574Z,26.40
2018-07-25T09:11:10.192Z,26.40
2018-07-25T09:13:37.792Z,26.60
2018-07-25T09:18:33.000Z,26.80
2018-07-25T09:21:00.587Z,26.80
2018-07-25T09:23:28.236Z,26.80
2018-07-25T09:25:55.814Z,26.80
2018-07-25T09:28:23.488Z,26.80
2018-07-25T09:30:51.078Z,26.70
2018-07-25T09:33:18.621Z,26.70
2018-07-25T09:35:46.211Z,26.70
2018-07-25T09:38:13.758Z,26.80
2018-07-25T09:40:41.354Z,27.00
2018-07-25T09:43:08.972Z,27.00
2018-07-25T09:45:36.562Z,27.00
2018-07-25T09:48:04.215Z,27.10
2018-07-25T09:53:06.089Z,27.40
2018-07-25T09:55:33.624Z,27.40
2018-07-25T09:58:01.185Z,27.60
2018-07-25T10:00:34.382Z,28.00
2018-07-25T10:03:01.991Z,28.20
2018-07-25T10:05:29.580Z,28.60
2018-07-25T10:07:57.214Z,28.70
2018-07-25T10:10:24.836Z,28.90
2018-07-25T10:15:19.952Z,29.30
2018-07-25T10:17:47.538Z,29.50
2018-07-25T10:20:15.145Z,29.70
2018-07-25T10:22:42.800Z,30.10
2018-07-25T10:25:10.388Z,30.30
2018-07-25T10:27:37.940Z,30.50
2018-07-25T10:30:05.618Z,30.90
2018-07-25T10:32:33.214Z,31.20
2018-07-25T10:35:00.804Z,31.50
2018-07-25T10:37:28.376Z,31.80
2018-07-25T10:39:55.951Z,32.10
2018-07-25T10:42:23.572Z,32.30
2018-07-25T10:44:51.162Z,32.40
2018-07-25T10:47:18.768Z,32.60
2018-07-25T10:49:46.344Z,32.60
2018-07-25T10:52:13.970Z,32.70
2018-07-25T10:54:41.570Z,32.70
2018-07-25T10:57:09.166Z,32.60
2018-07-25T10:59:36.723Z,32.20
2018-07-25T11:02:04.370Z,31.50
2018-07-25T11:04:31.904Z,31.10
2018-07-25T11:06:59.437Z,31.00
2018-07-25T11:09:27.001Z,30.70
2018-07-25T11:11:54.569Z,30.70
2018-07-25T11:14:22.131Z,31.10
2018-07-25T11:16:49.808Z,31.80
2018-07-25T11:19:17.348Z,32.40
2018-07-25T11:21:44.938Z,32.80
2018-07-25T11:24:12.484Z,33.00
2018-07-25T11:26:40.299Z,33.30
2018-07-25T11:29:07.881Z,33.70
2018-07-25T11:31:35.429Z,34.10
2018-07-25T11:34:03.008Z,34.10
2018-07-25T11:36:30.601Z,33.60
2018-07-25T11:43:53.152Z,33.30
2018-07-25T11:46:20.684Z,33.90
2018-07-25T11:48:48.234Z,34.50
2018-07-25T11:51:15.902Z,35.00
2018-07-25T11:53:43.467Z,35.40
2018-07-25T11:56:11.043Z,35.50
2018-07-25T11:58:38.626Z,35.60
2018-07-25T12:01:06.249Z,35.90
2018-07-25T12:03:33.788Z,36.30
2018-07-25T12:06:01.393Z,36.70
2018-07-25T12:08:28.961Z,37.20
2018-07-25T12:10:56.651Z,37.30
2018-07-25T12:13:24.282Z,36.80
2018-07-25T12:15:51.872Z,36.90
2018-07-25T12:18:19.490Z,36.90
2018-07-25T12:20:47.040Z,36.40
2018-07-25T12:23:14.617Z,35.50
2018-07-25T12:25:42.170Z,35.40
2018-07-25T12:28:09.743Z,35.40
2018-07-25T12:30:37.337Z,34.80
2018-07-25T12:33:04.952Z,33.30
2018-07-25T12:38:00.019Z,30.70
2018-07-25T12:40:27.633Z,29.40
2018-07-25T12:42:55.239Z,28.30
2018-07-25T12:45:22.802Z,27.20
2018-07-25T12:47:50.411Z,26.40
2018-07-25T12:50:17.986Z,25.50
2018-07-25T12:52:45.564Z,24.70
2018-07-25T12:55:13.142Z,24.20
2018-07-25T12:57:40.719Z,23.90
2018-07-25T13:00:08.568Z,23.50
2018-07-25T13:02:36.181Z,23.20
2018-07-25T13:05:04.814Z,22.90
2018-07-25T13:09:59.915Z,22.40
2018-07-25T13:12:27.534Z,22.30
2018-07-25T13:17:22.735Z,23.00
2018-07-25T13:19:50.341Z,23.80
2018-07-25T13:22:17.931Z,24.70
2018-07-25T13:24:45.514Z,25.50
2018-07-25T13:27:13.135Z,25.80
2018-07-25T13:29:40.760Z,25.50
2018-07-25T13:32:08.373Z,24.80
2018-07-25T13:34:35.969Z,24.10
2018-07-25T13:37:03.663Z,23.60
2018-07-25T13:41:58.814Z,23.10
2018-07-25T13:46:53.964Z,22.70
2018-07-25T13:49:21.643Z,22.70
2018-07-25T13:51:49.269Z,22.70
2018-07-25T13:54:16.879Z,22.70
2018-07-25T13:56:44.429Z,22.80
2018-07-25T13:59:12.089Z,23.50
2018-07-25T14:01:39.666Z,24.70
2018-07-25T14:04:07.264Z,25.60
2018-07-25T14:06:34.821Z,25.80
2018-07-25T14:09:02.559Z,26.40
2018-07-25T14:11:30.240Z,27.10
2018-07-25T14:13:57.910Z,28.00
2018-07-25T14:16:25.444Z,28.90
2018-07-25T14:18:53.056Z,29.60
2018-07-25T14:21:20.637Z,29.90
2018-07-25T14:23:48.285Z,30.20
2018-07-25T14:26:15.832Z,30.30
2018-07-25T14:28:43.382Z,30.50
2018-07-25T14:31:10.988Z,30.70
2018-07-25T14:33:38.554Z,31.20
2018-07-25T14:36:06.171Z,31.70
2018-07-25T14:38:33.814Z,31.80
2018-07-25T14:41:01.448Z,31.70
2018-07-25T14:43:29.037Z,31.40
2018-07-25T14:45:56.578Z,31.10
2018-07-25T14:48:24.170Z,31.20
2018-07-25T14:50:51.769Z,31.30
2018-07-25T14:55:46.897Z,31.10
2018-07-25T14:58:14.507Z,30.70
2018-07-25T15:00:42.105Z,30.20
2018-07-25T15:03:09.735Z,29.80
2018-07-25T15:05:37.358Z,29.40
2018-07-25T15:08:05.638Z,29.20
2018-07-25T15:10:33.415Z,28.80
2018-07-25T15:13:01.072Z,28.40
2018-07-25T15:15:28.695Z,27.80
2018-07-25T15:17:56.656Z,27.20
2018-07-25T15:20:24.313Z,26.60
2018-07-25T15:22:52.015Z,26.00
2018-07-25T15:25:19.524Z,25.30
2018-07-25T15:27:47.138Z,24.80
2018-07-25T15:30:14.769Z,24.40
2018-07-25T15:32:42.416Z,24.10
2018-07-25T15:35:10.323Z,24.00
2018-07-25T15:37:38.217Z,24.00
2018-07-25T15:40:06.514Z,23.80
2018-07-25T15:42:34.097Z,23.70
2018-07-25T15:45:01.838Z,23.70
2018-07-25T15:47:29.496Z,23.60
2018-07-25T15:49:57.066Z,23.40
2018-07-25T15:52:24.675Z,23.30
2018-07-25T15:54:52.320Z,23.20
2018-07-25T15:57:19.944Z,23.10
2018-07-25T15:59:47.739Z,22.90
2018-07-25T16:02:15.318Z,22.80
2018-07-25T16:04:43.181Z,22.70
2018-07-25T16:07:10.913Z,22.70
2018-07-25T16:09:38.685Z,22.60
2018-07-25T16:12:06.363Z,22.60
2018-07-25T16:14:33.969Z,22.60
2018-07-25T16:17:01.642Z,22.60
2018-07-25T16:19:29.246Z,22.70
2018-07-25T16:21:56.911Z,22.70
2018-07-25T16:24:24.551Z,22.90
2018-07-25T16:26:52.185Z,23.60
2018-07-25T16:29:19.983Z,24.50
2018-07-25T16:31:47.578Z,25.30
2018-07-25T16:34:15.157Z,26.00
2018-07-25T16:36:42.822Z,26.70
2018-07-25T16:39:13.451Z,27.10
2018-07-25T16:41:41.086Z,27.00
2018-07-25T16:44:08.698Z,26.80
2018-07-25T16:46:36.354Z,26.70
2018-07-25T16:49:04.066Z,26.80
2018-07-25T16:51:31.677Z,26.50
2018-07-25T16:53:59.337Z,26.20
2018-07-25T16:56:26.987Z,26.00
2018-07-25T16:58:54.577Z,26.00
2018-07-25T17:01:22.270Z,26.10
2018-07-25T17:03:50.032Z,26.30
2018-07-25T17:06:17.657Z,26.30
2018-07-25T17:08:45.261Z,26.00
2018-07-25T17:11:12.887Z,25.60
2018-07-25T17:13:40.534Z,25.10
2018-07-25T17:16:08.424Z,24.70
2018-07-25T17:18:36.018Z,24.40
2018-07-25T17:21:07.218Z,24.20
2018-07-25T17:23:34.838Z,24.20
2018-07-25T17:26:02.484Z,24.30
2018-07-25T17:28:30.153Z,24.60
2018-07-25T17:30:57.768Z,24.80
2018-07-25T17:33:25.454Z,24.90
2018-07-25T17:38:20.898Z,24.80
2018-07-25T17:45:43.722Z,24.80
2018-07-25T17:48:11.421Z,24.80
2018-07-25T17:53:06.654Z,24.70
2018-07-25T17:55:34.349Z,24.60
2018-07-25T17:58:04.407Z,24.50
2018-07-25T18:00:32.078Z,24.40
2018-07-25T18:02:59.774Z,24.20
2018-07-25T18:05:27.455Z,24.10
2018-07-25T18:07:55.269Z,23.90
2018-07-25T18:10:22.970Z,23.70
2018-07-25T18:12:55.221Z,23.60
2018-07-25T18:15:23.409Z,23.50
2018-07-25T18:17:51.164Z,23.40
2018-07-25T18:20:18.883Z,23.40
2018-07-25T18:22:46.624Z,23.30
2018-07-25T18:25:14.307Z,23.20
2018-07-25T18:27:42.119Z,23.00
2018-07-25T18:30:09.824Z,22.90
2018-07-25T18:32:37.553Z,22.80
2018-07-25T18:35:05.318Z,22.70
2018-07-25T18:37:33.006Z,22.50
2018-07-25T18:40:00.738Z,22.30
2018-07-25T18:42:28.475Z,22.20
2018-07-25T18:44:56.229Z,22.00
2018-07-25T18:47:23.952Z,21.90
2018-07-25T18:49:51.670Z,21.80
2018-07-25T18:52:19.387Z,21.70
2018-07-25T18:54:47.157Z,21.70
2018-07-25T18:57:14.889Z,21.60
2018-07-25T18:59:42.566Z,21.50
2018-07-25T19:02:10.318Z,21.40
2018-07-25T19:04:38.011Z,21.40
2018-07-25T19:07:06.667Z,21.30
2018-07-25T19:09:35.737Z,21.30
2018-07-25T19:14:36.818Z,21.00
2018-07-25T19:19:39.261Z,20.90
2018-07-25T19:22:06.944Z,20.80
2018-07-25T19:24:34.619Z,20.70
2018-07-25T19:27:02.732Z,20.60
2018-07-25T19:29:30.426Z,20.50
2018-07-25T19:31:59.154Z,20.40
2018-07-25T19:34:26.913Z,20.40
2018-07-25T19:36:54.635Z,20.30
2018-07-25T19:39:22.351Z,20.30
2018-07-25T19:41:49.994Z,20.20
2018-07-25T19:44:17.661Z,20.10
2018-07-25T19:46:46.916Z,20.10
2018-07-25T19:49:14.556Z,20.00
2018-07-25T19:51:42.262Z,19.90
2018-07-25T19:54:10.010Z,19.90
2018-07-25T19:56:37.690Z,19.90
2018-07-25T19:59:05.731Z,19.80
2018-07-25T20:01:33.431Z,19.80
2018-07-25T20:04:01.116Z,19.80
2018-07-25T20:08:56.537Z,19.70
2018-07-25T20:11:24.318Z,19.70
2018-07-25T20:13:57.778Z,19.70
2018-07-25T20:16:25.481Z,19.70
2018-07-25T20:21:20.904Z,19.60
2018-07-25T20:23:49.629Z,19.60
2018-07-25T20:26:17.246Z,19.60
2018-07-25T20:28:44.853Z,19.60
2018-07-25T20:31:12.537Z,19.60
2018-07-25T20:33:40.174Z,19.60
2018-07-25T20:36:07.829Z,19.60
2018-07-25T20:38:35.473Z,19.50
2018-07-25T20:41:03.151Z,19.50
2018-07-25T20:43:30.835Z,19.50
2018-07-25T20:45:58.432Z,19.50
2018-07-25T20:48:26.057Z,19.40
2018-07-25T20:50:53.608Z,19.40
2018-07-25T20:53:21.351Z,19.30
2018-07-25T20:55:49.037Z,19.30
2018-07-25T20:58:16.672Z,19.20
2018-07-25T21:00:44.278Z,19.20
2018-07-25T21:03:11.914Z,19.10
2018-07-25T21:08:07.035Z,19.00
2018-07-25T21:10:34.687Z,18.90
2018-07-25T21:13:02.268Z,18.90
2018-07-25T21:15:29.836Z,18.90
2018-07-25T21:17:57.428Z,18.90
2018-07-25T21:20:25.084Z,18.90
2018-07-25T21:22:52.706Z,18.90
2018-07-25T21:25:20.304Z,18.90
2018-07-25T21:27:47.914Z,18.90
2018-07-25T21:30:15.470Z,18.90
2018-07-25T21:32:43.131Z,18.80
2018-07-25T21:37:38.145Z,18.80
2018-07-25T21:40:05.764Z,18.70
2018-07-25T21:42:33.359Z,18.70
2018-07-25T21:45:01.315Z,18.70
2018-07-25T21:47:28.873Z,18.70
2018-07-25T21:49:56.476Z,18.70
2018-07-25T21:52:24.070Z,18.70
2018-07-25T21:54:51.624Z,18.70
2018-07-25T21:57:19.215Z,18.70
2018-07-25T21:59:46.852Z,18.70
2018-07-25T22:02:14.539Z,18.60
2018-07-25T22:04:42.138Z,18.60
2018-07-25T22:07:09.713Z,18.60
2018-07-25T22:09:37.320Z,18.50
2018-07-25T22:12:04.901Z,18.50
2018-07-25T22:14:32.510Z,18.50
2018-07-25T22:17:00.070Z,18.50
2018-07-25T22:19:27.687Z,18.50
2018-07-25T22:24:22.822Z,18.40
2018-07-25T22:26:50.476Z,18.40
2018-07-25T22:29:18.071Z,18.30
2018-07-25T22:31:45.674Z,18.30
2018-07-25T22:34:13.286Z,18.30
2018-07-25T22:36:40.861Z,18.30
2018-07-25T22:39:09.591Z,18.30
2018-07-25T22:41:37.275Z,18.20
2018-07-25T22:44:05.072Z,18.20
2018-07-25T22:46:32.662Z,18.20
2018-07-25T22:49:00.488Z,18.20
2018-07-25T22:51:28.120Z,18.20
2018-07-25T22:53:55.757Z,18.20
2018-07-25T22:56:23.329Z,18.20
2018-07-25T23:01:18.408Z,18.20
2018-07-25T23:03:46.019Z,18.20
2018-07-25T23:06:13.590Z,18.20
2018-07-25T23:08:41.168Z,18.20
2018-07-25T23:11:09.031Z,18.20
2018-07-25T23:13:36.675Z,18.20
2018-07-25T23:16:04.421Z,18.20
2018-07-25T23:18:32.033Z,18.20
2018-07-25T23:20:59.643Z,18.20
2018-07-25T23:23:27.064Z,18.10
2018-07-25T23:25:54.615Z,18.10
2018-07-25T23:28:22.207Z,18.10
2018-07-25T23:30:49.811Z,18.00
2018-07-25T23:33:17.428Z,18.00
2018-07-25T23:35:44.978Z,17.90
2018-07-25T23:38:12.597Z,17.90
2018-07-25T23:40:40.231Z,17.80
2018-07-25T23:48:03.038Z,17.70
2018-07-25T23:50:30.608Z,17.70
2018-07-25T23:52:58.162Z,17.70
2018-07-25T23:55:25.821Z,17.70
2018-07-25T23:57:53.435Z,17.70
